Time;durP1;ratioP1;P1;durP2;ratioP2;P2;SDS_P1;SDS_P2;PMS_P1;PMS_P2;Temp;Humidity;BMP_temperature;BMP_pressure;BME280_temperature;BME280_humidity;BME280_pressure;Samples;Min_cycle;Max_cycle;Signal;HPM_P1;HPM_P2
2024/03/20 00:02:21;;;;;;;15.95;7.32;;;;;;;;;;5074280;28;20044;-78
2024/03/20 00:04:47;;;;;;;13.07;7.10;;;;;;;;;;5048983;28;20037;-78
2024/03/20 00:07:12;;;;;;;13.30;6.80;;;;;;;;;;5077459;28;21268;-79
2024/03/20 00:09:37;;;;;;;17.40;7.50;;;;;;;;;;5076731;28;20036;-77
2024/03/20 00:12:03;;;;;;;14.05;7.38;;;;;;;;;;5069216;28;20044;-78
2024/03/20 00:14:28;;;;;;;15.07;7.65;;;;;;;;;;5071075;28;20069;-78
2024/03/20 00:16:56;;;;;;;14.27;7.45;;;;;;;;;;5075472;28;20032;-77
2024/03/20 00:19:22;;;;;;;15.15;7.82;;;;;;;;;;5077746;28;20564;-76
2024/03/20 00:21:48;;;;;;;13.45;7.43;;;;;;;;;;5035869;28;20156;-78
2024/03/20 00:24:13;;;;;;;17.35;8.25;;;;;;;;;;5072947;28;20101;-77
2024/03/20 00:26:39;;;;;;;15.82;7.28;;;;;;;;;;5077413;28;20112;-77
2024/03/20 00:29:04;;;;;;;14.30;7.70;;;;;;;;;;5067945;28;20045;-77
2024/03/20 00:31:30;;;;;;;15.25;7.72;;;;;;;;;;5063064;28;20062;-78
2024/03/20 00:33:55;;;;;;;17.30;7.57;;;;;;;;;;5075452;28;20113;-78
2024/03/20 00:36:21;;;;;;;15.90;7.72;;;;;;;;;;5067983;28;20179;-78
2024/03/20 00:38:47;;;;;;;15.95;7.43;;;;;;;;;;5061484;28;20029;-77
2024/03/20 00:41:13;;;;;;;13.02;7.38;;;;;;;;;;5070168;28;20083;-76
2024/03/20 00:43:38;;;;;;;14.13;7.50;;;;;;;;;;5072507;28;20036;-78
2024/03/20 00:46:04;;;;;;;14.48;7.63;;;;;;;;;;5079527;28;20089;-78
2024/03/20 00:48:30;;;;;;;14.70;7.22;;;;;;;;;;5072923;28;20032;-76
2024/03/20 00:50:55;;;;;;;16.17;8.25;;;;;;;;;;5075381;28;20396;-78
2024/03/20 00:53:20;;;;;;;13.00;7.25;;;;;;;;;;5069962;28;20032;-78
2024/03/20 00:55:46;;;;;;;14.20;7.80;;;;;;;;;;5061870;28;20041;-77
2024/03/20 00:58:12;;;;;;;19.23;9.73;;;;;;;;;;5042893;28;20040;-77
2024/03/20 01:00:40;;;;;;;15.23;7.50;;;;;;;;;;5068029;28;20060;-78
2024/03/20 01:03:06;;;;;;;15.45;8.35;;;;;;;;;;5055547;28;20081;-77
2024/03/20 01:05:32;;;;;;;15.35;8.18;;;;;;;;;;5065795;28;20134;-77
2024/03/20 01:07:57;;;;;;;15.82;7.78;;;;;;;;;;5059973;28;20323;-77
2024/03/20 01:10:23;;;;;;;14.88;8.07;;;;;;;;;;5069845;28;20043;-77
2024/03/20 01:12:49;;;;;;;12.73;6.43;;;;;;;;;;5057193;28;20410;-78
2024/03/20 01:15:14;;;;;;;16.25;8.18;;;;;;;;;;5071650;28;20043;-77
2024/03/20 01:17:40;;;;;;;13.50;6.82;;;;;;;;;;5060004;28;20043;-77
2024/03/20 01:20:07;;;;;;;20.23;9.57;;;;;;;;;;5063130;28;20055;-77
2024/03/20 01:22:36;;;;;;;16.10;8.13;;;;;;;;;;5071927;28;20046;-78
2024/03/20 01:25:05;;;;;;;15.40;7.55;;;;;;;;;;5073269;28;20040;-78
2024/03/20 01:27:31;;;;;;;16.05;7.78;;;;;;;;;;5058366;28;20054;-78
2024/03/20 01:29:57;;;;;;;16.50;8.45;;;;;;;;;;5071927;28;20115;-77
2024/03/20 01:32:22;;;;;;;8.23;5.15;;;;;;;;;;5060050;28;20191;-77
2024/03/20 01:34:47;;;;;;;12.85;7.60;;;;;;;;;;5076246;28;20634;-79
2024/03/20 01:37:14;;;;;;;9.95;5.10;;;;;;;;;;5075367;28;20111;-79
2024/03/20 01:39:39;;;;;;;4.82;3.05;;;;;;;;;;5078741;28;20040;-78
2024/03/20 01:42:05;;;;;;;7.03;4.32;;;;;;;;;;5072034;28;20028;-77
2024/03/20 01:44:30;;;;;;;16.92;7.90;;;;;;;;;;5044922;28;20029;-77
2024/03/20 01:46:56;;;;;;;14.70;7.55;;;;;;;;;;5070110;28;20041;-77
2024/03/20 01:49:21;;;;;;;35.10;9.95;;;;;;;;;;5073488;28;20024;-76
2024/03/20 01:51:47;;;;;;;17.02;7.70;;;;;;;;;;5070672;28;21990;-78
2024/03/20 01:54:14;;;;;;;15.70;7.22;;;;;;;;;;5060312;28;20055;-78
2024/03/20 01:56:40;;;;;;;12.60;6.40;;;;;;;;;;5054016;28;20037;-78
2024/03/20 01:59:05;;;;;;;4.47;2.70;;;;;;;;;;5057782;28;20112;-78
2024/03/20 02:01:31;;;;;;;14.75;6.53;;;;;;;;;;5064909;28;20119;-77
2024/03/20 02:03:57;;;;;;;13.40;6.50;;;;;;;;;;5072823;28;20430;-77
2024/03/20 02:06:27;;;;;;;12.70;6.30;;;;;;;;;;5062391;28;20040;-77
2024/03/20 02:08:55;;;;;;;16.40;6.80;;;;;;;;;;5066070;28;20052;-77
2024/03/20 02:11:21;;;;;;;13.77;6.65;;;;;;;;;;5065574;28;20055;-77
2024/03/20 02:13:51;;;;;;;9.23;4.57;;;;;;;;;;5076845;28;20033;-78
2024/03/20 02:16:18;;;;;;;3.30;1.88;;;;;;;;;;5073543;28;20047;-77
2024/03/20 02:18:44;;;;;;;3.83;2.22;;;;;;;;;;5062320;28;20617;-77
2024/03/20 02:21:14;;;;;;;4.25;2.10;;;;;;;;;;5073454;28;20064;-76
2024/03/20 02:23:40;;;;;;;14.15;7.00;;;;;;;;;;5075410;28;20540;-77
2024/03/20 02:26:07;;;;;;;14.30;7.18;;;;;;;;;;5056007;28;20039;-77
2024/03/20 02:28:34;;;;;;;8.07;4.22;;;;;;;;;;5075466;28;20106;-78
2024/03/20 02:31:00;;;;;;;6.03;2.45;;;;;;;;;;5076574;28;20024;-76
2024/03/20 02:33:26;;;;;;;14.32;6.22;;;;;;;;;;5071935;28;20078;-77
2024/03/20 02:35:53;;;;;;;12.63;6.60;;;;;;;;;;5029706;28;20067;-76
2024/03/20 02:38:20;;;;;;;5.60;3.90;;;;;;;;;;5070217;28;20036;-77
2024/03/20 02:40:45;;;;;;;14.23;7.50;;;;;;;;;;5064336;28;20045;-78
2024/03/20 02:43:10;;;;;;;12.40;6.68;;;;;;;;;;5068067;28;20040;-76
2024/03/20 02:45:36;;;;;;;14.50;5.43;;;;;;;;;;5062050;28;20117;-77
2024/03/20 02:48:01;;;;;;;13.85;5.50;;;;;;;;;;5058355;28;20047;-77
2024/03/20 02:50:26;;;;;;;13.48;5.97;;;;;;;;;;5073916;28;20523;-75
2024/03/20 02:52:52;;;;;;;11.75;6.47;;;;;;;;;;5063288;28;20126;-77
2024/03/20 02:55:17;;;;;;;16.95;7.55;;;;;;;;;;5075152;28;20032;-77
2024/03/20 02:57:42;;;;;;;14.15;6.38;;;;;;;;;;5055606;28;20040;-78
2024/03/20 03:00:10;;;;;;;13.63;6.80;;;;;;;;;;5055155;28;20127;-78
2024/03/20 03:02:35;;;;;;;12.27;7.07;;;;;;;;;;5072888;28;20032;-78
2024/03/20 03:05:00;;;;;;;13.70;6.63;;;;;;;;;;5058536;28;20085;-78
2024/03/20 03:07:26;;;;;;;13.50;6.55;;;;;;;;;;5071782;28;20037;-78
2024/03/20 03:09:52;;;;;;;14.73;6.55;;;;;;;;;;5065144;28;20716;-77
2024/03/20 03:12:17;;;;;;;14.75;6.22;;;;;;;;;;5059023;28;20044;-78
2024/03/20 03:14:42;;;;;;;16.13;7.25;;;;;;;;;;5073703;28;20424;-77
2024/03/20 03:17:08;;;;;;;14.25;7.03;;;;;;;;;;5057583;28;20096;-77
2024/03/20 03:19:33;;;;;;;15.32;6.63;;;;;;;;;;5048713;28;20040;-77
2024/03/20 03:21:58;;;;;;;19.48;7.53;;;;;;;;;;5070065;28;20374;-77
2024/03/20 03:24:24;;;;;;;16.40;6.68;;;;;;;;;;5077517;28;20062;-78
2024/03/20 03:26:49;;;;;;;10.90;6.05;;;;;;;;;;5063198;28;20032;-78
2024/03/20 03:29:14;;;;;;;12.45;6.45;;;;;;;;;;5067930;28;20076;-78
2024/03/20 03:31:40;;;;;;;11.85;7.43;;;;;;;;;;5063727;28;20043;-77
2024/03/20 03:34:05;;;;;;;14.70;6.80;;;;;;;;;;5072891;28;20127;-77
2024/03/20 03:36:32;;;;;;;4.47;2.55;;;;;;;;;;5073134;28;20032;-77
2024/03/20 03:38:58;;;;;;;12.13;6.13;;;;;;;;;;5070806;28;20078;-77
2024/03/20 03:41:23;;;;;;;12.88;6.63;;;;;;;;;;5071539;28;20024;-77
2024/03/20 03:43:49;;;;;;;15.43;7.10;;;;;;;;;;5060767;28;20956;-77
2024/03/20 03:46:15;;;;;;;5.35;3.17;;;;;;;;;;5072146;28;20563;-77
2024/03/20 03:48:40;;;;;;;15.80;7.47;;;;;;;;;;5071602;28;20040;-77
2024/03/20 03:51:06;;;;;;;13.25;6.68;;;;;;;;;;5067512;28;20122;-76
2024/03/20 03:53:31;;;;;;;14.38;7.50;;;;;;;;;;5078928;28;20501;-77
2024/03/20 03:55:56;;;;;;;16.58;6.90;;;;;;;;;;5059413;28;20561;-76
2024/03/20 03:58:22;;;;;;;13.13;6.50;;;;;;;;;;5055838;28;20562;-77
2024/03/20 04:00:47;;;;;;;13.00;6.55;;;;;;;;;;5044018;28;20040;-77
2024/03/20 04:03:12;;;;;;;16.48;7.80;;;;;;;;;;5075762;28;20040;-77
2024/03/20 04:05:38;;;;;;;16.38;7.45;;;;;;;;;;5074201;28;20044;-77
2024/03/20 04:08:03;;;;;;;15.60;8.27;;;;;;;;;;5072632;28;20536;-77
2024/03/20 04:10:29;;;;;;;11.18;7.03;;;;;;;;;;5074802;28;20043;-77
2024/03/20 04:12:54;;;;;;;13.85;7.03;;;;;;;;;;5067400;28;20055;-77
2024/03/20 04:15:20;;;;;;;6.72;2.92;;;;;;;;;;5073648;28;20036;-77
2024/03/20 04:17:45;;;;;;;15.23;6.50;;;;;;;;;;5040408;28;20575;-77
2024/03/20 04:20:11;;;;;;;15.57;8.18;;;;;;;;;;5071403;28;20120;-77
2024/03/20 04:22:39;;;;;;;13.30;7.22;;;;;;;;;;5065944;28;20047;-76
2024/03/20 04:25:05;;;;;;;15.80;7.68;;;;;;;;;;5065853;28;20153;-77
2024/03/20 04:27:31;;;;;;;19.65;8.50;;;;;;;;;;5072514;28;20041;-76
2024/03/20 04:29:57;;;;;;;12.68;7.53;;;;;;;;;;5063666;28;20036;-76
2024/03/20 04:32:22;;;;;;;15.50;8.00;;;;;;;;;;5062322;28;20036;-78
2024/03/20 04:34:47;;;;;;;12.68;6.30;;;;;;;;;;5063189;28;20160;-77
2024/03/20 04:37:13;;;;;;;8.88;4.60;;;;;;;;;;5056217;28;20045;-77
2024/03/20 04:39:38;;;;;;;9.20;4.00;;;;;;;;;;5071004;28;20044;-77
2024/03/20 04:42:05;;;;;;;16.20;7.30;;;;;;;;;;5052435;28;20046;-77
2024/03/20 04:44:30;;;;;;;13.52;7.32;;;;;;;;;;5058787;28;20036;-77
2024/03/20 04:46:55;;;;;;;4.57;2.67;;;;;;;;;;5057331;28;20044;-77
2024/03/20 04:49:21;;;;;;;3.63;1.75;;;;;;;;;;5066740;28;20724;-77
2024/03/20 04:51:46;;;;;;;12.93;6.45;;;;;;;;;;5055285;28;20040;-77
2024/03/20 04:54:14;;;;;;;4.82;2.65;;;;;;;;;;5057699;28;20094;-77
2024/03/20 04:56:39;;;;;;;12.07;6.85;;;;;;;;;;5052979;28;20045;-78
2024/03/20 04:59:06;;;;;;;14.75;7.75;;;;;;;;;;5052428;28;20074;-78
2024/03/20 05:01:31;;;;;;;16.10;8.00;;;;;;;;;;5053510;28;20074;-77
2024/03/20 05:03:57;;;;;;;11.95;6.05;;;;;;;;;;5036408;28;20060;-77
2024/03/20 05:06:22;;;;;;;4.47;2.65;;;;;;;;;;5062601;28;20040;-77
2024/03/20 05:08:47;;;;;;;13.23;6.88;;;;;;;;;;5065215;28;20032;-77
2024/03/20 05:11:13;;;;;;;14.10;7.50;;;;;;;;;;5066020;28;20091;-77
2024/03/20 05:13:38;;;;;;;12.77;7.15;;;;;;;;;;5072996;28;20040;-78
2024/03/20 05:16:08;;;;;;;17.73;8.30;;;;;;;;;;5070956;28;20093;-78
2024/03/20 05:18:33;;;;;;;20.63;9.82;;;;;;;;;;5068932;28;20560;-78
2024/03/20 05:20:58;;;;;;;18.33;8.40;;;;;;;;;;5068324;28;20063;-78
2024/03/20 05:23:24;;;;;;;15.93;7.18;;;;;;;;;;5056741;28;20039;-77
2024/03/20 05:26:00;;;;;;;16.55;7.88;;;;;;;;;;5073803;28;20370;-78
2024/03/20 05:28:26;;;;;;;13.70;7.00;;;;;;;;;;5025159;28;20047;-78
2024/03/20 05:30:52;;;;;;;15.95;7.60;;;;;;;;;;5059345;28;20117;-78
2024/03/20 05:33:17;;;;;;;4.32;2.85;;;;;;;;;;5061083;28;20507;-78
2024/03/20 05:35:43;;;;;;;14.90;6.88;;;;;;;;;;5065903;28;20035;-78
2024/03/20 05:38:09;;;;;;;14.15;7.25;;;;;;;;;;5051874;28;20067;-77
2024/03/20 05:40:34;;;;;;;13.43;6.80;;;;;;;;;;5067698;28;20058;-78
2024/03/20 05:43:00;;;;;;;14.73;7.38;;;;;;;;;;5063222;28;20040;-77
2024/03/20 05:45:25;;;;;;;19.08;7.82;;;;;;;;;;5058703;28;20501;-77
2024/03/20 05:47:51;;;;;;;17.58;8.77;;;;;;;;;;5053218;28;20085;-78
2024/03/20 05:50:16;;;;;;;21.13;9.38;;;;;;;;;;5064026;28;20040;-77
2024/03/20 05:52:43;;;;;;;20.60;9.10;;;;;;;;;;5059611;28;20550;-77
2024/03/20 05:55:08;;;;;;;19.73;9.07;;;;;;;;;;5046367;28;20106;-77
2024/03/20 05:57:34;;;;;;;19.17;8.75;;;;;;;;;;5052965;28;20052;-77
2024/03/20 05:59:59;;;;;;;20.08;8.77;;;;;;;;;;5064133;28;20035;-76
2024/03/20 06:02:24;;;;;;;17.33;8.25;;;;;;;;;;5040819;28;20064;-77
2024/03/20 06:04:50;;;;;;;22.23;8.90;;;;;;;;;;5057417;28;20052;-77
2024/03/20 06:07:15;;;;;;;18.83;8.77;;;;;;;;;;5050399;28;20032;-76
2024/03/20 06:09:41;;;;;;;16.17;8.20;;;;;;;;;;5051230;28;20043;-76
2024/03/20 06:12:09;;;;;;;13.98;6.65;;;;;;;;;;5060616;28;20048;-78
2024/03/20 06:14:35;;;;;;;15.40;6.80;;;;;;;;;;5054057;28;20036;-76
2024/03/20 06:17:01;;;;;;;12.10;6.40;;;;;;;;;;5067620;28;20507;-76
2024/03/20 06:19:26;;;;;;;16.05;7.15;;;;;;;;;;5054139;28;20501;-75
2024/03/20 06:21:52;;;;;;;21.83;10.82;;;;;;;;;;5051154;28;20095;-75
2024/03/20 06:24:17;;;;;;;19.65;9.18;;;;;;;;;;5050041;28;20036;-76
2024/03/20 06:26:42;;;;;;;19.33;8.75;;;;;;;;;;5059518;28;20032;-75
2024/03/20 06:29:08;;;;;;;19.83;9.18;;;;;;;;;;5060858;28;20052;-76
2024/03/20 06:31:35;;;;;;;19.00;8.80;;;;;;;;;;5037345;28;20136;-75
2024/03/20 06:34:00;;;;;;;22.92;10.02;;;;;;;;;;5048737;28;20119;-75
2024/03/20 06:36:27;;;;;;;23.55;9.93;;;;;;;;;;5059664;28;20183;-76
2024/03/20 06:38:52;;;;;;;18.38;9.55;;;;;;;;;;5069650;28;20523;-75
2024/03/20 06:41:18;;;;;;;19.98;8.75;;;;;;;;;;5075762;28;20574;-75
2024/03/20 06:43:50;;;;;;;18.38;9.85;;;;;;;;;;5071402;28;20031;-76
2024/03/20 06:46:15;;;;;;;22.55;10.45;;;;;;;;;;5069730;28;20069;-76
2024/03/20 06:48:41;;;;;;;20.40;10.27;;;;;;;;;;5056398;28;20036;-76
2024/03/20 06:51:09;;;;;;;25.23;10.13;;;;;;;;;;5056025;28;20572;-76
2024/03/20 06:53:35;;;;;;;22.85;11.52;;;;;;;;;;5027473;28;20041;-77
2024/03/20 06:56:02;;;;;;;22.20;10.32;;;;;;;;;;5056558;28;20044;-77
2024/03/20 06:58:27;;;;;;;21.52;11.05;;;;;;;;;;5066208;28;20036;-76
2024/03/20 07:00:52;;;;;;;22.50;12.38;;;;;;;;;;5054619;28;20041;-76
2024/03/20 07:03:19;;;;;;;25.08;11.75;;;;;;;;;;5067358;28;20035;-76
2024/03/20 07:05:45;;;;;;;25.77;12.85;;;;;;;;;;5055506;28;20530;-76
2024/03/20 07:08:10;;;;;;;23.55;11.98;;;;;;;;;;5054280;28;20046;-75
2024/03/20 07:10:36;;;;;;;28.27;14.95;;;;;;;;;;5043829;28;20056;-76
2024/03/20 07:13:06;;;;;;;28.27;14.57;;;;;;;;;;5058153;28;20105;-76
2024/03/20 07:15:32;;;;;;;30.05;14.93;;;;;;;;;;5073362;28;20520;-75
2024/03/20 07:17:59;;;;;;;26.88;13.68;;;;;;;;;;5072438;28;20185;-76
2024/03/20 07:20:24;;;;;;;27.38;14.35;;;;;;;;;;5073237;28;20032;-76
2024/03/20 07:22:50;;;;;;;31.15;15.02;;;;;;;;;;5057299;28;20765;-76
2024/03/20 07:25:16;;;;;;;28.58;13.50;;;;;;;;;;5052599;28;20029;-76
2024/03/20 07:27:41;;;;;;;24.88;13.95;;;;;;;;;;5063950;28;20489;-75
2024/03/20 07:30:08;;;;;;;23.27;12.35;;;;;;;;;;5072662;28;20105;-76
2024/03/20 07:32:35;;;;;;;23.52;13.77;;;;;;;;;;5073816;28;20040;-76
2024/03/20 07:35:01;;;;;;;21.85;12.35;;;;;;;;;;5071553;28;20071;-76
2024/03/20 07:37:26;;;;;;;23.67;12.32;;;;;;;;;;5060609;28;20036;-76
2024/03/20 07:39:52;;;;;;;24.15;12.55;;;;;;;;;;5053657;28;20363;-76
2024/03/20 07:42:17;;;;;;;26.15;12.07;;;;;;;;;;5068003;28;20043;-76
2024/03/20 07:44:43;;;;;;;21.73;11.52;;;;;;;;;;5065380;28;20032;-75
2024/03/20 07:47:08;;;;;;;24.45;12.00;;;;;;;;;;5074942;28;20050;-76
2024/03/20 07:49:33;;;;;;;23.25;12.70;;;;;;;;;;5067921;28;20555;-76
2024/03/20 07:51:59;;;;;;;25.48;13.02;;;;;;;;;;5067095;28;20395;-76
2024/03/20 07:54:24;;;;;;;26.55;12.18;;;;;;;;;;5073813;28;20101;-76
2024/03/20 07:56:56;;;;;;;21.52;12.20;;;;;;;;;;5069373;28;20040;-76
2024/03/20 07:59:23;;;;;;;28.75;13.15;;;;;;;;;;5047036;28;20036;-76
2024/03/20 08:01:50;;;;;;;21.10;11.50;;;;;;;;;;5069561;28;20037;-76
2024/03/20 08:04:15;;;;;;;21.17;11.15;;;;;;;;;;5078949;28;20044;-76
2024/03/20 08:06:41;;;;;;;22.95;11.45;;;;;;;;;;5069833;28;20028;-76
2024/03/20 08:09:06;;;;;;;20.58;10.77;;;;;;;;;;5063444;28;20144;-76
2024/03/20 08:11:33;;;;;;;21.77;11.07;;;;;;;;;;5054021;28;20822;-76
2024/03/20 08:13:58;;;;;;;18.65;10.35;;;;;;;;;;5064440;28;20586;-76
2024/03/20 08:16:24;;;;;;;22.83;11.45;;;;;;;;;;5069076;28;20068;-76
2024/03/20 08:18:49;;;;;;;21.15;12.02;;;;;;;;;;5049008;28;20041;-76
2024/03/20 08:21:15;;;;;;;22.77;10.60;;;;;;;;;;5069676;28;20126;-76
2024/03/20 08:23:41;;;;;;;18.98;10.43;;;;;;;;;;5068149;28;20540;-76
2024/03/20 08:26:07;;;;;;;22.45;10.85;;;;;;;;;;5070134;28;20656;-76
2024/03/20 08:28:33;;;;;;;23.80;11.38;;;;;;;;;;5066863;28;20074;-76
2024/03/20 08:30:58;;;;;;;21.60;11.77;;;;;;;;;;5069773;28;20374;-76
2024/03/20 08:33:24;;;;;;;21.40;10.75;;;;;;;;;;5059474;28;20067;-76
2024/03/20 08:35:57;;;;;;;20.67;10.93;;;;;;;;;;5055978;28;20486;-76
2024/03/20 08:38:24;;;;;;;22.45;10.93;;;;;;;;;;5069180;28;20752;-76
2024/03/20 08:40:49;;;;;;;21.40;10.25;;;;;;;;;;5052583;28;20047;-76
2024/03/20 08:43:15;;;;;;;22.05;11.63;;;;;;;;;;5045732;28;20044;-76
2024/03/20 08:45:41;;;;;;;17.98;9.75;;;;;;;;;;5064541;28;20383;-76
2024/03/20 08:48:07;;;;;;;21.45;11.20;;;;;;;;;;5071657;28;20119;-76
2024/03/20 08:50:34;;;;;;;23.90;11.55;;;;;;;;;;5059995;28;20038;-76
2024/03/20 08:53:00;;;;;;;19.38;9.70;;;;;;;;;;5069805;28;20045;-76
2024/03/20 08:55:25;;;;;;;20.70;9.88;;;;;;;;;;5056436;28;20501;-76
2024/03/20 08:57:51;;;;;;;21.73;10.32;;;;;;;;;;5063282;28;20044;-76
2024/03/20 09:00:19;;;;;;;19.70;10.52;;;;;;;;;;5067314;28;20118;-76
2024/03/20 09:02:44;;;;;;;19.15;11.38;;;;;;;;;;5069100;28;20032;-77
2024/03/20 09:05:11;;;;;;;20.67;10.32;;;;;;;;;;5072521;28;20118;-76
2024/03/20 09:07:36;;;;;;;16.83;10.07;;;;;;;;;;5062450;28;20064;-76
2024/03/20 09:10:02;;;;;;;20.20;9.88;;;;;;;;;;5048605;28;20087;-76
2024/03/20 09:12:27;;;;;;;21.15;10.13;;;;;;;;;;5039583;28;20036;-76
2024/03/20 09:14:53;;;;;;;19.90;9.90;;;;;;;;;;5066107;28;20040;-76
2024/03/20 09:17:18;;;;;;;18.77;10.45;;;;;;;;;;5061847;28;20111;-76
2024/03/20 09:19:43;;;;;;;23.20;10.55;;;;;;;;;;5067989;28;20089;-76
2024/03/20 09:22:09;;;;;;;21.50;10.95;;;;;;;;;;5074339;28;20478;-76
2024/03/20 09:24:34;;;;;;;19.42;10.88;;;;;;;;;;5076483;28;20047;-76
2024/03/20 09:27:00;;;;;;;9.23;5.18;;;;;;;;;;5066652;28;20071;-77
2024/03/20 09:29:25;;;;;;;18.35;10.50;;;;;;;;;;5073000;28;20035;-76
2024/03/20 09:31:50;;;;;;;19.55;10.82;;;;;;;;;;5074429;28;20076;-76
2024/03/20 09:34:16;;;;;;;18.17;9.95;;;;;;;;;;5073302;28;20519;-76
2024/03/20 09:36:41;;;;;;;14.13;7.80;;;;;;;;;;5075285;28;20075;-76
2024/03/20 09:39:10;;;;;;;20.95;11.90;;;;;;;;;;5068011;28;20051;-76
2024/03/20 09:41:37;;;;;;;19.67;10.90;;;;;;;;;;5063387;28;20059;-77
2024/03/20 09:44:04;;;;;;;28.92;12.02;;;;;;;;;;5033570;28;20036;-76
2024/03/20 09:46:30;;;;;;;18.90;10.88;;;;;;;;;;5065385;28;20040;-76
2024/03/20 09:48:56;;;;;;;23.15;11.75;;;;;;;;;;5058378;28;20030;-76
2024/03/20 09:51:21;;;;;;;18.15;10.38;;;;;;;;;;5069054;28;20052;-76
2024/03/20 09:53:51;;;;;;;16.95;9.77;;;;;;;;;;5074902;28;20043;-76
2024/03/20 09:56:21;;;;;;;17.02;9.00;;;;;;;;;;5071974;28;20048;-76
2024/03/20 09:58:47;;;;;;;11.02;5.80;;;;;;;;;;5045378;28;20036;-77
2024/03/20 10:01:15;;;;;;;18.60;9.63;;;;;;;;;;5072942;28;20056;-76
2024/03/20 10:03:43;;;;;;;19.15;9.80;;;;;;;;;;5073944;28;20039;-76
2024/03/20 10:06:09;;;;;;;18.35;8.85;;;;;;;;;;5071368;28;20841;-76
2024/03/20 10:08:38;;;;;;;15.65;9.02;;;;;;;;;;5070737;28;20552;-76
2024/03/20 10:11:08;;;;;;;17.75;10.15;;;;;;;;;;5063320;28;20044;-75
2024/03/20 10:13:39;;;;;;;16.63;9.45;;;;;;;;;;5053673;28;20135;-76
2024/03/20 10:16:14;;;;;;;21.65;8.90;;;;;;;;;;5065777;28;20037;-76
2024/03/20 10:18:44;;;;;;;16.52;9.25;;;;;;;;;;5049716;28;20123;-75
2024/03/20 10:21:10;;;;;;;15.52;8.93;;;;;;;;;;5061877;28;20079;-76
2024/03/20 10:23:44;;;;;;;15.85;7.65;;;;;;;;;;5072356;28;20295;-76
2024/03/20 10:26:15;;;;;;;15.68;8.10;;;;;;;;;;5066187;28;20040;-76
2024/03/20 10:28:41;;;;;;;15.10;8.05;;;;;;;;;;5055801;28;20066;-76
2024/03/20 10:31:10;;;;;;;16.27;8.38;;;;;;;;;;5078603;28;20467;-76
2024/03/20 10:33:37;;;;;;;15.60;7.80;;;;;;;;;;5071527;28;20036;-76
2024/03/20 10:36:04;;;;;;;14.18;7.95;;;;;;;;;;5065397;28;20036;-75
2024/03/20 10:38:32;;;;;;;13.70;8.43;;;;;;;;;;5065845;28;20036;-76
2024/03/20 10:40:58;;;;;;;12.50;6.93;;;;;;;;;;5073642;28;20032;-76
2024/03/20 10:43:24;;;;;;;15.57;8.18;;;;;;;;;;5075152;28;20459;-75
2024/03/20 10:45:53;;;;;;;10.50;7.30;;;;;;;;;;5031539;28;20059;-76
2024/03/20 10:48:19;;;;;;;12.55;6.82;;;;;;;;;;5067939;28;20496;-76
2024/03/20 10:50:48;;;;;;;13.82;8.02;;;;;;;;;;5057108;28;20416;-75
2024/03/20 10:53:15;;;;;;;12.57;7.75;;;;;;;;;;5055379;28;20048;-76
2024/03/20 10:55:42;;;;;;;13.20;6.95;;;;;;;;;;5074535;28;20028;-76
2024/03/20 10:58:11;;;;;;;14.27;7.95;;;;;;;;;;5071361;28;20040;-76
2024/03/20 11:00:41;;;;;;;13.20;7.13;;;;;;;;;;5059325;28;20055;-76
2024/03/20 11:03:47;;;;;;;12.68;6.75;;;;;;;;;;5070144;28;20119;-76
2024/03/20 11:06:25;;;;;;;13.10;6.45;;;;;;;;;;5072819;28;20036;-76
2024/03/20 11:08:58;;;;;;;9.88;6.15;;;;;;;;;;5050381;28;20060;-76
2024/03/20 11:11:28;;;;;;;9.95;6.13;;;;;;;;;;5023579;28;20081;-76
2024/03/20 11:13:53;;;;;;;13.02;7.20;;;;;;;;;;5053031;28;20417;-76
2024/03/20 11:16:22;;;;;;;13.30;7.75;;;;;;;;;;5065104;28;20055;-75
2024/03/20 11:19:13;;;;;;;11.77;7.15;;;;;;;;;;5073144;28;20055;-76
2024/03/20 11:21:38;;;;;;;11.63;7.03;;;;;;;;;;5069652;28;20055;-76
2024/03/20 11:24:05;;;;;;;13.10;6.40;;;;;;;;;;5058975;28;20489;-76
2024/03/20 11:26:32;;;;;;;11.75;5.90;;;;;;;;;;5072586;28;20209;-76
2024/03/20 11:28:59;;;;;;;10.73;5.32;;;;;;;;;;5068713;28;20051;-76
2024/03/20 11:31:24;;;;;;;11.35;6.40;;;;;;;;;;5072486;28;20044;-76
2024/03/20 11:33:50;;;;;;;10.85;5.82;;;;;;;;;;5066184;28;20195;-76
2024/03/20 11:36:18;;;;;;;8.32;5.20;;;;;;;;;;5056507;28;20423;-76
2024/03/20 11:38:44;;;;;;;10.45;5.75;;;;;;;;;;5067281;28;20040;-76
2024/03/20 11:41:10;;;;;;;11.10;6.95;;;;;;;;;;5070269;28;20147;-76
2024/03/20 11:43:35;;;;;;;9.00;6.05;;;;;;;;;;5065311;28;20040;-75
2024/03/20 11:46:01;;;;;;;9.32;6.00;;;;;;;;;;5056688;28;20119;-75
2024/03/20 11:48:28;;;;;;;9.63;6.65;;;;;;;;;;5060563;28;20037;-76
2024/03/20 11:50:53;;;;;;;10.18;6.05;;;;;;;;;;5071535;28;20039;-76
2024/03/20 11:53:20;;;;;;;9.82;3.55;;;;;;;;;;5055583;28;20033;-76
2024/03/20 11:55:47;;;;;;;10.57;5.82;;;;;;;;;;5059539;28;20040;-76
2024/03/20 11:58:12;;;;;;;12.73;6.30;;;;;;;;;;5059858;28;20115;-76
2024/03/20 12:00:38;;;;;;;9.98;6.75;;;;;;;;;;5068529;28;20131;-76
2024/03/20 12:03:20;;;;;;;7.07;4.00;;;;;;;;;;5059921;28;20036;-76
2024/03/20 12:05:47;;;;;;;9.60;4.80;;;;;;;;;;5070573;28;20036;-77
2024/03/20 12:08:17;;;;;;;10.30;5.00;;;;;;;;;;5070565;28;20417;-76
2024/03/20 12:10:43;;;;;;;7.07;4.93;;;;;;;;;;5062265;28;20040;-77
2024/03/20 12:13:12;;;;;;;9.45;4.95;;;;;;;;;;5065109;28;20037;-76
2024/03/20 12:15:39;;;;;;;7.90;3.85;;;;;;;;;;5059905;28;20047;-77
2024/03/20 12:18:05;;;;;;;7.10;4.22;;;;;;;;;;5053903;28;20040;-76
2024/03/20 12:20:31;;;;;;;8.73;4.35;;;;;;;;;;5057465;28;20589;-76
2024/03/20 12:22:57;;;;;;;7.20;5.55;;;;;;;;;;5067571;28;20127;-77
2024/03/20 12:25:22;;;;;;;8.43;4.35;;;;;;;;;;5036478;28;20123;-76
2024/03/20 12:27:48;;;;;;;7.82;4.80;;;;;;;;;;5057562;28;20382;-76
2024/03/20 12:30:13;;;;;;;7.07;4.57;;;;;;;;;;5035264;28;20037;-76
2024/03/20 12:32:38;;;;;;;7.57;4.65;;;;;;;;;;5053274;28;20033;-76
2024/03/20 12:35:04;;;;;;;7.10;4.35;;;;;;;;;;5050546;28;20044;-76
2024/03/20 12:37:31;;;;;;;3.25;2.53;;;;;;;;;;5059699;28;20034;-76
2024/03/20 12:39:57;;;;;;;7.53;4.50;;;;;;;;;;5071190;28;20044;-76
2024/03/20 12:42:23;;;;;;;6.93;4.25;;;;;;;;;;5069583;28;20028;-76
2024/03/20 12:44:49;;;;;;;4.88;3.88;;;;;;;;;;5061101;28;20058;-76
2024/03/20 12:47:15;;;;;;;4.78;3.65;;;;;;;;;;5062066;28;20069;-76
2024/03/20 12:49:41;;;;;;;8.70;4.05;;;;;;;;;;5053984;28;20040;-76
2024/03/20 12:52:12;;;;;;;6.35;3.65;;;;;;;;;;5063864;28;20109;-77
2024/03/20 12:54:38;;;;;;;;;;;;;;;;;;5051943;28;20048;-76
2024/03/20 12:57:03;;;;;;;6.15;4.32;;;;;;;;;;5054764;28;20472;-76
2024/03/20 12:59:28;;;;;;;11.27;4.60;;;;;;;;;;5070140;28;20405;-76
2024/03/20 13:01:55;;;;;;;6.35;2.95;;;;;;;;;;5064497;28;20058;-76
2024/03/20 13:04:20;;;;;;;6.53;3.83;;;;;;;;;;5069077;28;20443;-77
2024/03/20 13:06:46;;;;;;;7.30;3.72;;;;;;;;;;5074988;28;20036;-77
2024/03/20 13:09:11;;;;;;;9.05;4.28;;;;;;;;;;5060321;28;20501;-77
2024/03/20 13:11:39;;;;;;;5.10;2.42;;;;;;;;;;5051479;28;20072;-76
2024/03/20 13:14:05;;;;;;;6.20;3.50;;;;;;;;;;5051087;28;20052;-77
2024/03/20 13:16:31;;;;;;;4.40;3.28;;;;;;;;;;5052675;28;20423;-77
2024/03/20 13:18:58;;;;;;;6.28;3.70;;;;;;;;;;5056389;28;20037;-76
2024/03/20 13:21:26;;;;;;;4.80;3.42;;;;;;;;;;5069351;28;20032;-76
2024/03/20 13:24:11;;;;;;;4.40;3.10;;;;;;;;;;5040391;28;20605;-77
2024/03/20 13:26:41;;;;;;;6.50;3.45;;;;;;;;;;5059838;28;20040;-78
2024/03/20 13:29:07;;;;;;;7.55;5.40;;;;;;;;;;5070598;28;20051;-77
2024/03/20 13:31:33;;;;;;;4.82;3.20;;;;;;;;;;5074202;28;20067;-77
2024/03/20 13:34:03;;;;;;;6.82;3.20;;;;;;;;;;5059451;28;20316;-77
2024/03/20 13:36:30;;;;;;;5.60;3.30;;;;;;;;;;5073092;28;20036;-76
2024/03/20 13:39:11;;;;;;;3.75;3.20;;;;;;;;;;5066577;28;20512;-76
2024/03/20 13:44:13;;;;;;;17.73;14.38;;;;;;;;;;5071185;28;20036;-77
2024/03/20 13:46:39;;;;;;;8.38;4.00;;;;;;;;;;5053178;28;20036;-77
2024/03/20 13:49:11;;;;;;;6.13;2.88;;;;;;;;;;5061757;28;20071;-77
2024/03/20 13:51:40;;;;;;;4.97;3.35;;;;;;;;;;5052897;28;20317;-77
2024/03/20 13:54:07;;;;;;;6.15;4.50;;;;;;;;;;5052343;28;20072;-77
2024/03/20 13:56:33;;;;;;;6.43;4.15;;;;;;;;;;5071904;28;20042;-76
2024/03/20 13:58:59;;;;;;;9.55;6.07;;;;;;;;;;5078916;28;20122;-77
2024/03/20 14:01:29;;;;;;;1.52;1.38;;;;;;;;;;5073655;28;20126;-78
2024/03/20 14:03:55;;;;;;;1.90;1.63;;;;;;;;;;5048808;28;20036;-77
2024/03/20 14:06:21;;;;;;;4.63;3.10;;;;;;;;;;5066741;28;20081;-77
2024/03/20 14:08:48;;;;;;;1.92;1.52;;;;;;;;;;5055750;28;20094;-77
2024/03/20 14:11:14;;;;;;;6.28;3.75;;;;;;;;;;5065525;28;20032;-77
2024/03/20 14:13:43;;;;;;;5.75;3.72;;;;;;;;;;5041196;28;20045;-77
2024/03/20 14:16:17;;;;;;;4.55;3.25;;;;;;;;;;5050925;28;20512;-77
2024/03/20 14:18:43;;;;;;;5.10;3.10;;;;;;;;;;5067533;28;20068;-77
2024/03/20 14:21:11;;;;;;;5.38;3.20;;;;;;;;;;5075225;28;20523;-77
2024/03/20 14:23:36;;;;;;;4.70;2.70;;;;;;;;;;5059189;28;20086;-77
2024/03/20 14:26:02;;;;;;;4.18;2.65;;;;;;;;;;5066428;28;20048;-77
2024/03/20 14:28:27;;;;;;;6.53;2.92;;;;;;;;;;5071351;28;20040;-77
2024/03/20 14:30:53;;;;;;;6.80;2.60;;;;;;;;;;5062303;28;20044;-77